Time;durP1;ratioP1;P1;durP2;ratioP2;P2;SDS_P1;SDS_P2;PMS_P1;PMS_P2;Temp;Humidity;BMP_temperature;BMP_pressure;BME280_temperature;BME280_humidity;BME280_pressure;Samples;Min_cycle;Max_cycle;Signal;HPM_P1;HPM_P2
2021/10/26 00:00:57;;;;;;;11.80;10.13;;;13.80;99.90;;;;;;2072202;28;20072;-72
2021/10/26 00:01:58;;;;;;;13.15;10.32;;;13.70;99.90;;;;;;2073360;28;20026;-72
2021/10/26 00:02:59;;;;;;;14.52;10.98;;;13.80;99.90;;;;;;2075965;28;20025;-72
2021/10/26 00:03:59;;;;;;;13.90;10.77;;;13.70;99.90;;;;;;2080657;28;20068;-72
2021/10/26 00:05:00;;;;;;;12.63;10.82;;;13.70;99.90;;;;;;2080612;28;20029;-72
2021/10/26 00:06:01;;;;;;;14.68;11.60;;;13.70;99.90;;;;;;2075931;28;20064;-72
2021/10/26 00:07:02;;;;;;;15.50;11.68;;;13.70;99.90;;;;;;2072042;28;20091;-72
2021/10/26 00:08:02;;;;;;;17.38;12.27;;;13.70;99.90;;;;;;2071231;28;20032;-72
2021/10/26 00:09:04;;;;;;;13.95;12.10;;;13.70;99.90;;;;;;2070728;28;20497;-72
2021/10/26 00:10:08;;;;;;;17.42;12.20;;;13.70;99.90;;;;;;2072460;28;20062;-72
2021/10/26 00:11:09;;;;;;;16.52;12.98;;;13.70;99.90;;;;;;2071866;28;20037;-72
2021/10/26 00:12:10;;;;;;;15.13;12.25;;;13.70;99.90;;;;;;2072321;28;20034;-72
2021/10/26 00:13:10;;;;;;;16.45;11.85;;;13.70;99.90;;;;;;2071922;28;20032;-72
2021/10/26 00:14:11;;;;;;;15.00;12.40;;;13.70;99.90;;;;;;2074440;28;20551;-72
2021/10/26 00:15:12;;;;;;;17.98;12.77;;;13.70;99.90;;;;;;2072182;28;20022;-72
2021/10/26 00:16:12;;;;;;;15.50;12.52;;;13.70;99.90;;;;;;2072446;28;20098;-72
2021/10/26 00:17:13;;;;;;;14.27;11.45;;;13.70;99.90;;;;;;2071897;28;20026;-72
2021/10/26 00:18:14;;;;;;;18.50;13.27;;;13.70;99.90;;;;;;2079294;28;20060;-72
2021/10/26 00:19:14;;;;;;;12.77;11.48;;;13.70;99.90;;;;;;2080044;28;20045;-72
2021/10/26 00:20:15;;;;;;;15.00;11.55;;;13.70;99.90;;;;;;2079910;28;20454;-73
2021/10/26 00:21:16;;;;;;;14.75;11.95;;;13.60;99.90;;;;;;2080199;28;20033;-72
2021/10/26 00:22:16;;;;;;;13.20;10.65;;;13.60;99.90;;;;;;2080455;28;20026;-72
2021/10/26 00:23:17;;;;;;;13.30;10.75;;;13.60;99.90;;;;;;2080384;28;20032;-72
2021/10/26 00:24:18;;;;;;;12.07;10.07;;;13.70;99.90;;;;;;2079874;28;20029;-72
2021/10/26 00:25:18;;;;;;;13.65;10.40;;;13.70;99.90;;;;;;2080212;28;20421;-72
2021/10/26 00:26:19;;;;;;;15.52;11.32;;;13.70;99.90;;;;;;2079963;28;20026;-72
2021/10/26 00:27:19;;;;;;;15.73;11.27;;;13.70;99.90;;;;;;2080268;28;20373;-72
2021/10/26 00:28:20;;;;;;;12.95;10.55;;;13.70;99.90;;;;;;2079117;28;20508;-72
2021/10/26 00:29:21;;;;;;;13.05;11.30;;;13.70;99.90;;;;;;2080284;28;20026;-71
2021/10/26 00:30:21;;;;;;;14.15;10.68;;;13.70;99.90;;;;;;2079979;28;20037;-71
2021/10/26 00:31:24;;;;;;;11.90;10.63;;;13.70;99.90;;;;;;2080023;28;20021;-72
2021/10/26 00:32:25;;;;;;;12.20;10.77;;;13.60;99.90;;;;;;2076278;28;20058;-71
2021/10/26 00:33:26;;;;;;;12.02;10.70;;;13.60;99.90;;;;;;2071807;28;20030;-72
2021/10/26 00:34:27;;;;;;;14.45;12.02;;;13.60;99.90;;;;;;2071945;28;20486;-72
2021/10/26 00:35:28;;;;;;;14.77;11.15;;;13.60;99.90;;;;;;2071802;28;20446;-72
2021/10/26 00:36:29;;;;;;;15.27;11.40;;;13.60;99.90;;;;;;2072944;28;20060;-72
2021/10/26 00:37:30;;;;;;;13.23;10.15;;;13.70;99.90;;;;;;2074976;28;20025;-72
2021/10/26 00:38:30;;;;;;;12.88;11.05;;;13.70;99.90;;;;;;2076971;28;20108;-72
2021/10/26 00:39:31;;;;;;;12.65;10.60;;;13.70;99.90;;;;;;2070976;28;20033;-72
2021/10/26 00:40:32;;;;;;;13.52;10.98;;;13.60;99.90;;;;;;2079531;28;20083;-72
2021/10/26 00:41:33;;;;;;;12.27;10.98;;;13.70;99.90;;;;;;2076276;28;20474;-72
2021/10/26 00:42:34;;;;;;;14.43;11.23;;;13.70;99.90;;;;;;2071960;28;20029;-72
2021/10/26 00:43:34;;;;;;;12.68;10.32;;;13.70;99.90;;;;;;2071143;28;20116;-72
2021/10/26 00:44:35;;;;;;;12.90;10.30;;;13.60;99.90;;;;;;2070937;28;20033;-72
2021/10/26 00:45:36;;;;;;;13.48;10.65;;;13.70;99.90;;;;;;2072096;28;20112;-72
2021/10/26 00:46:36;;;;;;;13.25;10.23;;;13.60;99.90;;;;;;2071622;28;20117;-72
2021/10/26 00:47:37;;;;;;;12.40;9.70;;;13.60;99.90;;;;;;2072543;28;20109;-72
2021/10/26 00:48:38;;;;;;;13.52;10.25;;;13.70;99.90;;;;;;2070489;28;20368;-71
2021/10/26 00:49:38;;;;;;;10.73;9.50;;;13.70;99.90;;;;;;2072096;28;20033;-72
2021/10/26 00:50:39;;;;;;;12.52;9.20;;;13.60;99.90;;;;;;2071427;28;20022;-72
2021/10/26 00:51:41;;;;;;;13.32;9.45;;;13.70;99.90;;;;;;2071643;28;20121;-72
2021/10/26 00:52:45;;;;;;;10.48;8.88;;;13.60;99.90;;;;;;2071833;28;20037;-72
2021/10/26 00:53:46;;;;;;;11.13;9.60;;;13.60;99.90;;;;;;2071807;28;20049;-72
2021/10/26 00:54:46;;;;;;;11.02;9.07;;;13.60;99.90;;;;;;2070856;28;20028;-72
2021/10/26 00:55:48;;;;;;;13.73;10.07;;;13.60;99.90;;;;;;2071188;28;20108;-72
2021/10/26 00:56:49;;;;;;;13.40;10.50;;;13.60;99.90;;;;;;2071664;28;20018;-72
2021/10/26 00:57:51;;;;;;;12.45;9.52;;;13.60;99.90;;;;;;2074134;28;20025;-72
2021/10/26 00:58:52;;;;;;;12.70;9.98;;;13.60;99.90;;;;;;2071993;28;20142;-72
2021/10/26 00:59:53;;;;;;;13.95;10.60;;;13.60;99.90;;;;;;2079837;28;20017;-72
2021/10/26 01:00:54;;;;;;;11.98;10.52;;;13.60;99.90;;;;;;2077882;28;20476;-72
2021/10/26 01:01:54;;;;;;;14.07;11.10;;;13.60;99.90;;;;;;2075226;28;20029;-72
2021/10/26 01:02:55;;;;;;;12.25;10.73;;;13.60;99.90;;;;;;2079926;28;20060;-72
2021/10/26 01:03:56;;;;;;;15.98;11.38;;;13.60;99.90;;;;;;2078245;28;20029;-72
2021/10/26 01:04:57;;;;;;;12.25;11.05;;;13.60;99.90;;;;;;2070986;28;20026;-72
2021/10/26 01:05:57;;;;;;;16.38;11.32;;;13.60;99.90;;;;;;2073071;28;20049;-72
2021/10/26 01:06:58;;;;;;;11.98;10.35;;;13.60;99.90;;;;;;2071843;28;20026;-72
2021/10/26 01:07:58;;;;;;;14.85;10.68;;;13.60;99.90;;;;;;2072923;28;20034;-72
2021/10/26 01:08:59;;;;;;;14.20;11.15;;;13.60;99.90;;;;;;2071260;28;20037;-72
2021/10/26 01:10:00;;;;;;;14.13;11.60;;;13.60;99.90;;;;;;2071674;28;20110;-72
2021/10/26 01:11:01;;;;;;;14.60;11.73;;;13.60;99.90;;;;;;2071783;28;20029;-72
2021/10/26 01:12:03;;;;;;;13.93;11.23;;;13.60;99.90;;;;;;2070574;28;20026;-72
2021/10/26 01:13:04;;;;;;;15.45;11.93;;;13.60;99.90;;;;;;2071250;28;20018;-72
2021/10/26 01:14:05;;;;;;;14.02;11.70;;;13.60;99.90;;;;;;2073008;28;20080;-72
2021/10/26 01:15:06;;;;;;;18.27;12.27;;;13.60;99.90;;;;;;2070759;28;20076;-72
2021/10/26 01:16:07;;;;;;;15.82;10.57;;;13.60;99.90;;;;;;2070898;28;20034;-72
2021/10/26 01:17:12;;;;;;;12.55;10.57;;;13.60;99.90;;;;;;2074086;28;20022;-72
2021/10/26 01:18:14;;;;;;;13.18;10.38;;;13.60;99.90;;;;;;2078811;28;20508;-72
2021/10/26 01:19:14;;;;;;;13.40;10.93;;;13.50;99.90;;;;;;2079440;28;20026;-72
2021/10/26 01:20:15;;;;;;;12.18;10.15;;;13.60;99.90;;;;;;2077807;28;20104;-72
2021/10/26 01:21:16;;;;;;;11.68;10.43;;;13.60;99.90;;;;;;2071684;28;20026;-72
2021/10/26 01:22:19;;;;;;;12.68;10.07;;;13.50;99.90;;;;;;2071236;28;20054;-72
2021/10/26 01:23:22;;;;;;;12.07;10.35;;;13.50;99.90;;;;;;2070620;28;20022;-72
2021/10/26 01:24:23;;;;;;;13.40;9.25;;;13.50;99.90;;;;;;2070930;28;20026;-72
2021/10/26 01:25:23;;;;;;;11.20;10.10;;;13.50;99.90;;;;;;2071590;28;20106;-72
2021/10/26 01:26:24;;;;;;;11.63;10.02;;;13.50;99.90;;;;;;2071353;28;20088;-72
2021/10/26 01:27:24;;;;;;;11.30;9.75;;;13.60;99.90;;;;;;2069167;28;20034;-72
2021/10/26 01:28:25;;;;;;;10.95;8.77;;;13.50;99.90;;;;;;2076528;28;20034;-72
2021/10/26 01:29:25;;;;;;;12.70;9.45;;;13.60;99.90;;;;;;2079340;28;20053;-72
2021/10/26 01:30:31;;;;;;;11.48;9.27;;;13.50;99.90;;;;;;2075627;28;20036;-72
2021/10/26 01:31:31;;;;;;;10.30;9.10;;;13.60;99.90;;;;;;2077428;28;20030;-72
2021/10/26 01:32:32;;;;;;;11.23;9.48;;;13.60;99.90;;;;;;2078972;28;20013;-72
2021/10/26 01:33:33;;;;;;;12.55;9.48;;;13.50;99.90;;;;;;2079695;28;20070;-72
2021/10/26 01:34:33;;;;;;;12.07;9.85;;;13.50;99.90;;;;;;2079320;28;20025;-72
2021/10/26 01:35:36;;;;;;;9.85;8.82;;;13.50;99.90;;;;;;2071507;28;20057;-72
2021/10/26 01:36:37;;;;;;;10.98;9.63;;;13.50;99.90;;;;;;2076192;28;20022;-72
2021/10/26 01:37:37;;;;;;;11.52;8.90;;;13.50;99.90;;;;;;2070699;28;20052;-72
2021/10/26 01:38:38;;;;;;;10.20;8.85;;;13.50;99.90;;;;;;2075118;28;20103;-73
2021/10/26 01:39:39;;;;;;;11.90;9.13;;;13.50;99.90;;;;;;2078943;28;20101;-72
2021/10/26 01:40:40;;;;;;;15.80;9.80;;;13.50;99.90;;;;;;2079595;28;20034;-72
2021/10/26 01:41:40;;;;;;;13.00;9.82;;;13.50;99.90;;;;;;2075045;28;20105;-72
2021/10/26 01:42:41;;;;;;;12.15;9.32;;;13.50;99.90;;;;;;2071407;28;20026;-72
2021/10/26 01:43:41;;;;;;;11.13;9.30;;;13.50;99.90;;;;;;2071447;28;20022;-72
2021/10/26 01:44:42;;;;;;;11.52;9.60;;;13.50;99.90;;;;;;2073163;28;20056;-72
2021/10/26 01:45:43;;;;;;;12.48;9.20;;;13.50;99.90;;;;;;2078160;28;20084;-72
2021/10/26 01:46:43;;;;;;;10.95;9.40;;;13.50;99.90;;;;;;2071965;28;20060;-72
2021/10/26 01:47:44;;;;;;;11.50;9.45;;;13.50;99.90;;;;;;2070827;28;20072;-72
2021/10/26 01:48:45;;;;;;;11.07;9.55;;;13.50;99.90;;;;;;2070145;28;20076;-72
2021/10/26 01:49:45;;;;;;;12.32;10.07;;;13.50;99.90;;;;;;2071339;28;20152;-72
2021/10/26 01:50:46;;;;;;;12.63;9.73;;;13.50;99.90;;;;;;2071278;28;20775;-72
2021/10/26 01:51:47;;;;;;;11.75;10.48;;;13.50;99.90;;;;;;2071704;28;20560;-72
2021/10/26 01:52:49;;;;;;;11.90;9.98;;;13.50;99.90;;;;;;2071270;28;20101;-72
2021/10/26 01:53:49;;;;;;;12.88;11.00;;;13.50;99.90;;;;;;2071658;28;20057;-72
2021/10/26 01:54:50;;;;;;;12.77;11.07;;;13.50;99.90;;;;;;2071399;28;20022;-72
2021/10/26 01:55:51;;;;;;;13.32;11.00;;;13.50;99.90;;;;;;2071457;28;20339;-72
2021/10/26 01:56:51;;;;;;;14.80;11.40;;;13.50;99.90;;;;;;2070829;28;20030;-72
2021/10/26 01:57:52;;;;;;;17.45;11.40;;;13.50;99.90;;;;;;2072513;28;20080;-72
2021/10/26 01:58:53;;;;;;;12.40;10.93;;;13.50;99.90;;;;;;2071903;28;20022;-73
2021/10/26 01:59:55;;;;;;;14.43;11.68;;;13.50;99.90;;;;;;2079006;28;20569;-72
2021/10/26 02:00:56;;;;;;;13.57;11.82;;;13.60;99.90;;;;;;2079816;28;20504;-72
2021/10/26 02:01:57;;;;;;;15.20;12.25;;;13.60;99.90;;;;;;2080629;28;20453;-72
2021/10/26 02:02:57;;;;;;;17.25;11.98;;;13.50;99.90;;;;;;2080863;28;20049;-72
2021/10/26 02:03:58;;;;;;;15.10;13.23;;;13.50;99.90;;;;;;2079182;28;20028;-72
2021/10/26 02:04:59;;;;;;;16.02;13.23;;;13.60;99.90;;;;;;2071653;28;20037;-72
2021/10/26 02:06:02;;;;;;;15.38;12.77;;;13.50;99.90;;;;;;2076337;28;20101;-73
2021/10/26 02:07:03;;;;;;;17.02;12.98;;;13.60;99.90;;;;;;2080584;28;20358;-72
2021/10/26 02:08:04;;;;;;;15.85;12.30;;;13.60;99.90;;;;;;2072612;28;20033;-72
2021/10/26 02:09:05;;;;;;;15.55;12.98;;;13.60;99.90;;;;;;2072053;28;20026;-72
2021/10/26 02:10:07;;;;;;;16.65;12.00;;;13.60;99.90;;;;;;2075472;28;20025;-72
2021/10/26 02:11:07;;;;;;;14.98;11.98;;;13.50;99.90;;;;;;2073062;28;20374;-72
2021/10/26 02:12:08;;;;;;;13.35;11.30;;;13.50;99.90;;;;;;2071944;28;20212;-73
2021/10/26 02:13:08;;;;;;;15.23;11.48;;;13.50;99.90;;;;;;2071901;28;20018;-72
2021/10/26 02:14:09;;;;;;;14.93;11.75;;;13.50;99.90;;;;;;2072940;28;20021;-72
2021/10/26 02:15:10;;;;;;;15.05;11.77;;;13.60;99.90;;;;;;2072716;28;20429;-72
2021/10/26 02:16:10;;;;;;;14.23;11.10;;;13.50;99.90;;;;;;2072679;28;20061;-72
2021/10/26 02:17:11;;;;;;;13.75;10.88;;;13.50;99.90;;;;;;2072791;28;20018;-72
2021/10/26 02:18:12;;;;;;;13.43;11.13;;;13.50;99.90;;;;;;2072031;28;20120;-72
2021/10/26 02:19:12;;;;;;;15.95;11.18;;;13.60;99.90;;;;;;2078939;28;20025;-72
2021/10/26 02:20:13;;;;;;;13.63;11.30;;;13.60;99.90;;;;;;2078981;28;20049;-72
2021/10/26 02:21:13;;;;;;;12.82;10.75;;;13.50;99.90;;;;;;2072934;28;20026;-72
2021/10/26 02:22:14;;;;;;;11.57;9.88;;;13.50;99.90;;;;;;2072510;28;20018;-72
2021/10/26 02:23:14;;;;;;;13.07;10.32;;;13.60;99.90;;;;;;2072342;28;20105;-72
2021/10/26 02:24:15;;;;;;;11.77;10.32;;;13.50;99.90;;;;;;2072424;28;20060;-72
2021/10/26 02:25:16;;;;;;;14.18;10.77;;;13.60;99.90;;;;;;2072863;28;20022;-73
2021/10/26 02:26:16;;;;;;;12.45;10.38;;;13.60;99.90;;;;;;2071750;28;20022;-72
2021/10/26 02:27:17;;;;;;;14.63;11.57;;;13.60;99.90;;;;;;2072005;28;20030;-72
2021/10/26 02:28:18;;;;;;;13.23;10.68;;;13.60;99.90;;;;;;2072097;28;20080;-72
2021/10/26 02:29:19;;;;;;;13.85;10.90;;;13.60;99.90;;;;;;2080659;28;20478;-72
2021/10/26 02:30:20;;;;;;;15.20;11.40;;;13.60;99.90;;;;;;2081649;28;20393;-72
2021/10/26 02:31:20;;;;;;;16.33;12.50;;;13.60;99.90;;;;;;2082243;28;20029;-72
2021/10/26 02:32:21;;;;;;;15.20;10.73;;;13.60;99.90;;;;;;2074275;28;20029;-72
2021/10/26 02:33:21;;;;;;;18.45;11.38;;;13.60;99.90;;;;;;2074257;28;20026;-72
2021/10/26 02:34:22;;;;;;;16.10;12.02;;;13.60;99.90;;;;;;2073773;28;20033;-72
2021/10/26 02:35:23;;;;;;;12.15;10.85;;;13.60;99.90;;;;;;2074377;28;20021;-72
2021/10/26 02:36:23;;;;;;;14.75;11.35;;;13.60;99.90;;;;;;2080806;28;20572;-72
2021/10/26 02:37:24;;;;;;;13.95;11.07;;;13.60;99.90;;;;;;2074976;28;20076;-72
2021/10/26 02:38:24;;;;;;;14.07;10.93;;;13.60;99.90;;;;;;2078534;28;20040;-72
2021/10/26 02:39:25;;;;;;;13.10;10.93;;;13.60;99.90;;;;;;2081643;28;20548;-72
2021/10/26 02:40:26;;;;;;;17.00;10.85;;;13.60;99.90;;;;;;2081568;28;20021;-72
2021/10/26 02:41:27;;;;;;;16.77;11.32;;;13.60;99.90;;;;;;2079481;28;20521;-72
2021/10/26 02:42:28;;;;;;;15.45;10.88;;;13.60;99.90;;;;;;2072796;28;20030;-72
2021/10/26 02:43:30;;;;;;;12.57;11.32;;;13.60;99.90;;;;;;2073596;28;20048;-72
2021/10/26 02:44:31;;;;;;;13.13;11.52;;;13.60;99.90;;;;;;2077078;28;20032;-72
2021/10/26 02:45:31;;;;;;;16.05;10.27;;;13.60;99.90;;;;;;2082262;28;20029;-72
2021/10/26 02:46:32;;;;;;;16.10;11.65;;;13.60;99.90;;;;;;2076689;28;20513;-71
2021/10/26 02:47:33;;;;;;;14.50;11.13;;;13.60;99.90;;;;;;2065309;28;20026;-72
2021/10/26 02:48:34;;;;;;;14.65;10.98;;;13.60;99.90;;;;;;2072804;28;20022;-72
2021/10/26 02:49:34;;;;;;;15.57;11.30;;;13.60;99.90;;;;;;2073730;28;20394;-72
2021/10/26 02:50:35;;;;;;;12.40;11.10;;;13.60;99.90;;;;;;2073992;28;20021;-72
2021/10/26 02:51:36;;;;;;;12.55;11.07;;;13.60;99.90;;;;;;2073629;28;20359;-72
2021/10/26 02:52:38;;;;;;;12.07;10.43;;;13.70;99.90;;;;;;2074027;28;20050;-72
2021/10/26 02:53:39;;;;;;;15.27;11.20;;;13.60;99.90;;;;;;2073878;28;20152;-72
2021/10/26 02:54:40;;;;;;;14.98;11.98;;;13.60;99.90;;;;;;2074104;28;20030;-72
2021/10/26 02:55:40;;;;;;;13.07;11.48;;;13.70;99.90;;;;;;2074092;28;20493;-72
2021/10/26 02:56:42;;;;;;;12.18;10.65;;;13.70;99.90;;;;;;2078359;28;20048;-72
2021/10/26 02:57:42;;;;;;;13.80;12.10;;;13.70;99.90;;;;;;2080798;28;21227;-72
2021/10/26 02:58:44;;;;;;;19.88;11.02;;;13.70;99.90;;;;;;2080833;28;20021;-72
2021/10/26 02:59:44;;;;;;;13.43;10.82;;;13.70;99.90;;;;;;2078988;28;20381;-73
2021/10/26 03:00:46;;;;;;;15.20;11.52;;;13.70;99.90;;;;;;2087658;28;20017;-72
2021/10/26 03:01:46;;;;;;;13.70;10.35;;;13.70;99.90;;;;;;2078679;28;20060;-72
2021/10/26 03:02:47;;;;;;;15.02;11.77;;;13.70;99.90;;;;;;2081389;28;20469;-72
2021/10/26 03:03:47;;;;;;;16.95;11.32;;;13.70;99.90;;;;;;2081042;28;20053;-72
2021/10/26 03:04:48;;;;;;;13.98;10.60;;;13.70;99.90;;;;;;2081292;28;20101;-72
2021/10/26 03:05:49;;;;;;;16.35;11.13;;;13.70;99.90;;;;;;2078915;28;20370;-72
2021/10/26 03:06:49;;;;;;;13.27;10.93;;;13.70;99.90;;;;;;2072998;28;20022;-72
2021/10/26 03:07:50;;;;;;;19.00;11.38;;;13.70;99.90;;;;;;2072815;28;20347;-72
2021/10/26 03:08:51;;;;;;;17.38;11.13;;;13.70;99.90;;;;;;2072177;28;20092;-72
2021/10/26 03:09:51;;;;;;;16.77;11.27;;;13.70;99.90;;;;;;2075974;28;20023;-72
2021/10/26 03:10:52;;;;;;;15.05;10.98;;;13.70;99.90;;;;;;2076045;28;20041;-72
2021/10/26 03:11:53;;;;;;;14.73;10.48;;;13.60;99.90;;;;;;2071724;28;20100;-72
2021/10/26 03:12:53;;;;;;;15.95;10.65;;;13.60;99.90;;;;;;2072573;28;20474;-72
2021/10/26 03:13:54;;;;;;;12.95;10.60;;;13.60;99.90;;;;;;2075957;28;20045;-72
2021/10/26 03:14:54;;;;;;;16.25;10.88;;;13.60;99.90;;;;;;2080944;28;20046;-72
2021/10/26 03:15:55;;;;;;;16.95;11.20;;;13.60;99.90;;;;;;2073405;28;20030;-72
2021/10/26 03:16:55;;;;;;;13.02;10.25;;;13.70;99.90;;;;;;2071870;28;20026;-72
2021/10/26 03:17:57;;;;;;;13.63;10.27;;;13.70;99.90;;;;;;2072573;28;20022;-72
2021/10/26 03:18:57;;;;;;;18.50;11.57;;;13.70;99.90;;;;;;2074935;28;20075;-72
2021/10/26 03:19:59;;;;;;;14.52;10.40;;;13.60;99.90;;;;;;2080753;28;20119;-72
2021/10/26 03:21:00;;;;;;;11.68;10.43;;;13.60;99.90;;;;;;2072534;28;20025;-72
2021/10/26 03:22:00;;;;;;;17.13;11.70;;;13.60;99.90;;;;;;2072475;28;20030;-72
2021/10/26 03:23:02;;;;;;;16.10;12.05;;;13.60;99.90;;;;;;2072426;28;20026;-72
2021/10/26 03:24:03;;;;;;;13.40;11.48;;;13.60;99.90;;;;;;2072254;28;20482;-72
2021/10/26 03:25:05;;;;;;;18.40;11.30;;;13.60;99.90;;;;;;2072427;28;20029;-72
2021/10/26 03:26:06;;;;;;;14.95;11.32;;;13.70;99.90;;;;;;2072638;28;20599;-72
2021/10/26 03:27:07;;;;;;;13.57;11.02;;;13.60;99.90;;;;;;2071794;28;20116;-72
2021/10/26 03:28:09;;;;;;;14.07;11.55;;;13.60;99.90;;;;;;2075064;28;20033;-72
2021/10/26 03:29:10;;;;;;;16.48;11.48;;;13.70;99.90;;;;;;2078942;28;20234;-72
2021/10/26 03:30:11;;;;;;;14.10;11.60;;;13.70;99.90;;;;;;2076304;28;20038;-72
2021/10/26 03:31:11;;;;;;;16.60;11.90;;;13.70;99.90;;;;;;2078866;28;20057;-72
2021/10/26 03:32:12;;;;;;;16.27;11.48;;;13.70;99.90;;;;;;2073173;28;20038;-72
2021/10/26 03:33:13;;;;;;;14.20;11.35;;;13.70;99.90;;;;;;2072532;28;20046;-72
2021/10/26 03:34:13;;;;;;;14.05;11.27;;;13.70;99.90;;;;;;2072173;28;20363;-72
2021/10/26 03:35:14;;;;;;;14.60;11.25;;;13.70;99.90;;;;;;2072069;28;20033;-72
2021/10/26 03:36:15;;;;;;;16.67;11.80;;;13.70;99.90;;;;;;2072523;28;20107;-72
2021/10/26 03:37:15;;;;;;;14.50;11.85;;;13.70;99.90;;;;;;2078906;28;20948;-72
2021/10/26 03:38:16;;;;;;;16.10;11.98;;;13.70;99.90;;;;;;2075572;28;20046;-72
2021/10/26 03:39:16;;;;;;;15.65;11.23;;;13.70;99.90;;;;;;2079175;28;20075;-72
2021/10/26 03:40:17;;;;;;;14.25;11.15;;;13.70;99.90;;;;;;2080656;28;20022;-72
2021/10/26 03:41:18;;;;;;;12.73;10.27;;;13.70;99.90;;;;;;2078652;28;20036;-72
2021/10/26 03:42:18;;;;;;;15.90;11.88;;;13.70;99.90;;;;;;2072375;28;20029;-72
2021/10/26 03:43:19;;;;;;;14.80;11.93;;;13.70;99.90;;;;;;2078122;28;20037;-72
2021/10/26 03:44:19;;;;;;;13.48;11.90;;;13.70;99.90;;;;;;2071828;28;20049;-72
2021/10/26 03:45:20;;;;;;;16.38;12.80;;;13.70;99.90;;;;;;2063387;28;20026;-72
2021/10/26 03:46:20;;;;;;;15.77;12.27;;;13.70;99.90;;;;;;2079993;28;20521;-72
2021/10/26 03:47:21;;;;;;;13.07;11.32;;;13.70;99.90;;;;;;2080348;28;20024;-72
2021/10/26 03:48:21;;;;;;;17.13;12.25;;;13.70;99.90;;;;;;2080247;28;20026;-72
2021/10/26 03:49:22;;;;;;;13.57;11.55;;;13.70;99.90;;;;;;2079293;28;20021;-72
2021/10/26 03:50:23;;;;;;;14.68;11.50;;;13.70;99.90;;;;;;2079781;28;20468;-72
2021/10/26 03:51:23;;;;;;;15.15;12.48;;;13.70;99.90;;;;;;2079570;28;20061;-72
2021/10/26 03:52:24;;;;;;;16.25;12.82;;;13.80;99.90;;;;;;2079843;28;20561;-72
2021/10/26 03:53:24;;;;;;;16.25;12.30;;;13.80;99.90;;;;;;2080375;28;20038;-72
2021/10/26 03:54:25;;;;;;;19.33;12.52;;;13.80;99.90;;;;;;2080338;28;20037;-72
2021/10/26 03:55:25;;;;;;;18.15;12.38;;;13.80;99.90;;;;;;2080644;28;20079;-72
2021/10/26 03:56:26;;;;;;;19.92;12.77;;;13.80;99.90;;;;;;2080368;28;20017;-72
2021/10/26 03:57:27;;;;;;;16.10;12.20;;;13.80;99.90;;;;;;2076196;28;20064;-72
2021/10/26 03:58:28;;;;;;;18.10;12.90;;;13.80;99.90;;;;;;2071983;28;20045;-72
2021/10/26 03:59:30;;;;;;;15.00;12.18;;;13.80;99.90;;;;;;2077649;28;20017;-72
2021/10/26 04:00:31;;;;;;;17.65;12.15;;;13.80;99.90;;;;;;2080206;28;20053;-72
2021/10/26 04:01:33;;;;;;;16.92;12.73;;;13.80;99.90;;;;;;2072780;28;20498;-72
2021/10/26 04:02:38;;;;;;;15.13;12.38;;;13.80;99.90;;;;;;2071443;28;20469;-71
2021/10/26 04:03:39;;;;;;;16.35;11.82;;;13.80;99.90;;;;;;2071748;28;20444;-72
2021/10/26 04:04:40;;;;;;;14.90;11.80;;;13.80;99.90;;;;;;2072159;28;20348;-72
2021/10/26 04:06:45;;;;;;;16.08;12.40;;;13.80;99.90;;;;;;2072359;28;20144;-72
2021/10/26 04:07:51;;;;;;;13.07;11.55;;;13.80;99.90;;;;;;2072009;28;20501;-72
2021/10/26 04:08:57;;;;;;;15.40;12.15;;;13.80;99.90;;;;;;2071522;28;20394;-72
2021/10/26 04:11:06;;;;;;;14.60;12.77;;;13.80;99.90;;;;;;2075407;28;20022;-72
2021/10/26 04:12:28;;;;;;;18.95;12.32;;;13.80;99.90;;;;;;2077202;28;20036;-72
2021/10/26 04:13:27;;;;;;;17.08;11.82;;;13.70;99.90;;;;;;2080173;28;20048;-72
2021/10/26 04:14:28;;;;;;;16.52;13.40;;;13.70;99.90;;;;;;2073060;28;20045;-72
2021/10/26 04:15:30;;;;;;;19.50;13.60;;;13.80;99.90;;;;;;2071363;28;20477;-72
2021/10/26 04:16:31;;;;;;;17.38;12.23;;;13.70;99.90;;;;;;2071560;28;20521;-72
2021/10/26 04:17:32;;;;;;;17.25;13.10;;;13.80;99.90;;;;;;2072207;28;20021;-72
2021/10/26 04:18:33;;;;;;;18.00;13.35;;;13.80;99.90;;;;;;2070424;28;20052;-71
2021/10/26 04:19:33;;;;;;;17.17;12.90;;;13.80;99.90;;;;;;2079333;28;20101;-72
2021/10/26 04:20:34;;;;;;;13.43;11.98;;;13.80;99.90;;;;;;2075935;28;20025;-72
2021/10/26 04:21:34;;;;;;;18.42;12.95;;;13.80;99.90;;;;;;2071572;28;20026;-72
2021/10/26 04:22:35;;;;;;;19.00;13.02;;;13.80;99.90;;;;;;2071194;28;20030;-72
2021/10/26 04:23:35;;;;;;;19.20;12.65;;;13.80;99.90;;;;;;2072120;28;20077;-72
2021/10/26 04:24:36;;;;;;;14.60;12.20;;;13.80;99.90;;;;;;2072021;28;20037;-72
2021/10/26 04:25:37;;;;;;;13.93;12.05;;;13.80;99.90;;;;;;2071968;28;20030;-72
2021/10/26 04:26:37;;;;;;;13.77;11.77;;;13.70;99.90;;;;;;2073171;28;20056;-71
2021/10/26 04:27:38;;;;;;;16.25;13.40;;;13.80;99.90;;;;;;2071974;28;20045;-72
2021/10/26 04:28:38;;;;;;;20.08;13.60;;;13.80;99.90;;;;;;2071266;28;20177;-72
2021/10/26 04:29:41;;;;;;;17.23;13.75;;;13.80;99.90;;;;;;2072146;28;20033;-71
2021/10/26 04:30:43;;;;;;;20.00;12.70;;;13.80;99.90;;;;;;2071757;28;20036;-72
2021/10/26 04:31:44;;;;;;;16.33;12.65;;;13.80;99.90;;;;;;2072121;28;20496;-72
2021/10/26 04:32:45;;;;;;;18.20;13.23;;;13.80;99.90;;;;;;2072183;28;20594;-72
2021/10/26 04:33:45;;;;;;;14.20;12.70;;;13.80;99.90;;;;;;2077689;28;20103;-72
2021/10/26 04:34:46;;;;;;;18.02;13.00;;;13.80;99.90;;;;;;2079377;28;20106;-72
2021/10/26 04:35:47;;;;;;;16.40;13.48;;;13.80;99.90;;;;;;2071503;28;20536;-72
2021/10/26 04:36:47;;;;;;;17.77;12.50;;;13.80;99.90;;;;;;2074933;28;20021;-72
2021/10/26 04:37:48;;;;;;;22.00;13.68;;;13.80;99.90;;;;;;2071132;28;20026;-72
2021/10/26 04:38:48;;;;;;;16.75;13.38;;;13.80;99.90;;;;;;2070878;28;20017;-72
2021/10/26 04:39:49;;;;;;;18.08;12.98;;;13.80;99.90;;;;;;2079242;28;20460;-72
2021/10/26 04:40:57;;;;;;;19.80;13.45;;;13.80;99.90;;;;;;2079541;28;20022;-72
2021/10/26 04:41:57;;;;;;;17.92;13.73;;;13.80;99.90;;;;;;2079893;28;20021;-72
2021/10/26 04:42:59;;;;;;;17.92;13.35;;;13.80;99.90;;;;;;2078153;28;20036;-72
2021/10/26 04:44:02;;;;;;;18.80;13.52;;;13.80;99.90;;;;;;2071825;28;20409;-72
2021/10/26 04:45:04;;;;;;;20.83;13.68;;;13.90;99.90;;;;;;2077708;28;20036;-72
2021/10/26 04:46:04;;;;;;;19.40;14.30;;;13.90;99.90;;;;;;2079191;28;20040;-72
2021/10/26 04:47:05;;;;;;;19.00;13.85;;;13.90;99.90;;;;;;2072107;28;20066;-72
2021/10/26 04:48:13;;;;;;;18.48;13.80;;;13.90;99.90;;;;;;2071444;28;20541;-72
2021/10/26 04:49:14;;;;;;;21.45;14.43;;;13.90;99.90;;;;;;2071738;28;20026;-72
2021/10/26 04:50:15;;;;;;;21.63;14.45;;;13.90;99.90;;;;;;2071702;28;20129;-72
2021/10/26 04:51:15;;;;;;;18.17;13.50;;;13.90;99.90;;;;;;2072005;28;20033;-72
2021/10/26 04:52:16;;;;;;;19.23;14.27;;;13.90;99.90;;;;;;2071204;28;20516;-72
2021/10/26 04:53:17;;;;;;;22.08;14.15;;;13.90;99.90;;;;;;2070883;28;20033;-72
2021/10/26 04:54:18;;;;;;;19.17;13.68;;;13.90;99.90;;;;;;2071253;28;21077;-72
2021/10/26 04:55:18;;;;;;;17.23;13.60;;;13.90;99.90;;;;;;2078934;28;20091;-72
2021/10/26 04:56:19;;;;;;;18.20;14.25;;;13.90;99.90;;;;;;2079833;28;20017;-72
2021/10/26 04:57:19;;;;;;;17.33;13.13;;;13.90;99.90;;;;;;2079850;28;20480;-72
2021/10/26 04:58:20;;;;;;;16.92;14.13;;;13.90;99.90;;;;;;2071221;28;20113;-72
2021/10/26 04:59:20;;;;;;;17.83;14.15;;;13.90;99.90;;;;;;2076601;28;20613;-72
2021/10/26 05:00:21;;;;;;;21.40;14.82;;;13.90;99.90;;;;;;2080134;28;20112;-72
2021/10/26 05:01:22;;;;;;;19.92;14.80;;;13.90;99.90;;;;;;2073742;28;20029;-72
2021/10/26 05:02:22;;;;;;;19.88;14.90;;;13.90;99.90;;;;;;2071387;28;20051;-72
2021/10/26 05:03:23;;;;;;;19.40;14.60;;;13.90;99.90;;;;;;2071741;28;20026;-72
2021/10/26 05:04:23;;;;;;;18.35;15.35;;;13.80;99.90;;;;;;2070656;28;20049;-72
2021/10/26 05:05:24;;;;;;;17.25;14.85;;;13.80;99.90;;;;;;2073623;28;20029;-72
2021/10/26 05:06:25;;;;;;;20.77;14.95;;;13.80;99.90;;;;;;2071605;28;20053;-72
2021/10/26 05:07:25;;;;;;;17.30;15.23;;;13.80;99.90;;;;;;2070976;28;20508;-72
2021/10/26 05:08:26;;;;;;;22.83;15.43;;;13.80;99.90;;;;;;2070356;28;20018;-72
2021/10/26 05:09:27;;;;;;;23.55;15.80;;;13.80;99.90;;;;;;2077073;28;20470;-72
2021/10/26 05:10:27;;;;;;;24.48;15.65;;;13.80;99.90;;;;;;2078236;28;20028;-72
2021/10/26 05:11:28;;;;;;;20.73;15.85;;;13.80;99.90;;;;;;2071838;28;20068;-72
2021/10/26 05:12:29;;;;;;;18.63;15.45;;;13.90;99.90;;;;;;2070937;28;20579;-72